createdAt,value
2022-08-04T00:00:11.790Z,94769.16
2022-08-04T00:01:17.821Z,94888.66
2022-08-04T00:02:24.190Z,94862.78
2022-08-04T00:03:28.140Z,94866.22
2022-08-04T00:05:03.263Z,94866.75
2022-08-04T00:06:18.113Z,94831.84
2022-08-04T00:07:20.909Z,94861.97
2022-08-04T00:08:44.287Z,94860.88
2022-08-04T00:09:59.911Z,94766.22
2022-08-04T00:10:59.862Z,94829.97
2022-08-04T00:12:01.430Z,94856.63
2022-08-04T00:13:02.398Z,94863.03
2022-08-04T00:14:05.190Z,94852.34
2022-08-04T00:15:06.026Z,94872.38
2022-08-04T00:16:08.514Z,94757.44
2022-08-04T00:17:08.513Z,94869.97
2022-08-04T00:18:08.878Z,94876.09
2022-08-04T00:19:16.892Z,94883.28
2022-08-04T00:20:21.685Z,94863.81
2022-08-04T00:21:24.600Z,94874.75
2022-08-04T00:22:26.724Z,94864.06
2022-08-04T00:23:26.881Z,94866.75
2022-08-04T00:24:45.245Z,94843.81
2022-08-04T00:25:42.273Z,94883.81
2022-08-04T00:26:41.222Z,94875.81
2022-08-04T00:27:38.775Z,94833.63
2022-08-04T00:28:38.171Z,94861.97
2022-08-04T00:29:37.902Z,94865.66
2022-08-04T00:30:34.714Z,94870.19
2022-08-04T00:31:53.566Z,94868.34
2022-08-04T00:32:49.698Z,94852.84
2022-08-04T00:33:46.819Z,94825.16
2022-08-04T00:34:44.734Z,94820.31
2022-08-04T00:35:41.983Z,94880.34
2022-08-04T00:36:40.717Z,94871.84
2022-08-04T00:37:38.777Z,94882.78
2022-08-04T00:38:35.931Z,94875.81
2022-08-04T00:39:34.502Z,94869.97
2022-08-04T00:41:08.371Z,94873.72
2022-08-04T00:42:26.575Z,94872.66
2022-08-04T00:43:37.390Z,94840.38
2022-08-04T00:44:39.782Z,94871.28
2022-08-04T00:46:15.503Z,94873.44
2022-08-04T00:47:41.777Z,94876.66
2022-08-04T00:49:03.106Z,94869.44
2022-08-04T00:50:02.474Z,94872.63
2022-08-04T00:51:25.948Z,94871.34
2022-08-04T00:52:36.653Z,94870.00
2022-08-04T00:53:49.525Z,94868.38
2022-08-04T00:54:58.711Z,94874.78
2022-08-04T00:55:55.378Z,94868.38
2022-08-04T00:57:21.569Z,94856.34
2022-08-04T00:58:39.405Z,94869.97
2022-08-04T01:00:07.720Z,94883.84
2022-08-04T01:01:08.758Z,94876.38
2022-08-04T01:02:25.660Z,94876.13
2022-08-04T01:03:41.793Z,94877.19
2022-08-04T01:04:46.921Z,94871.84
2022-08-04T01:06:02.359Z,94860.38
2022-08-04T01:07:29.462Z,94868.38
2022-08-04T01:09:00.904Z,94878.78
2022-08-04T01:10:37.972Z,94842.50
2022-08-04T01:11:56.931Z,94880.66
2022-08-04T01:13:19.803Z,94878.47
2022-08-04T01:14:39.424Z,94854.22
2022-08-04T01:16:00.362Z,94842.75
2022-08-04T01:17:18.967Z,94885.19
2022-08-04T01:18:41.938Z,94890.25
2022-08-04T01:20:02.459Z,94879.06
2022-08-04T01:21:23.394Z,94858.22
2022-08-04T01:22:32.424Z,94885.72
2022-08-04T01:23:56.581Z,94880.88
2022-08-04T01:25:30.462Z,94886.78
2022-08-04T01:26:57.218Z,94891.88
2022-08-04T01:28:01.230Z,94890.78
2022-08-04T01:29:09.898Z,94821.41
2022-08-04T01:30:06.797Z,94887.81
2022-08-04T01:31:34.923Z,94803.28
2022-08-04T01:33:02.144Z,94841.41
2022-08-04T01:34:04.946Z,94768.53
2022-08-04T01:35:09.426Z,94889.16
2022-08-04T01:36:13.125Z,94886.22
2022-08-04T01:37:42.034Z,94848.06
2022-08-04T01:38:44.147Z,94866.97
2022-08-04T01:39:57.302Z,94899.50
2022-08-04T01:40:59.357Z,94785.31
2022-08-04T01:41:58.726Z,94894.97
2022-08-04T01:42:55.827Z,94893.91
2022-08-04T01:43:56.137Z,94870.31
2022-08-04T01:44:55.463Z,94893.88
2022-08-04T01:45:59.574Z,94897.63
2022-08-04T01:46:57.736Z,94685.25
2022-08-04T01:47:56.618Z,94885.13
2022-08-04T01:48:54.721Z,94890.72
2022-08-04T01:49:59.830Z,94862.41
2022-08-04T01:51:04.766Z,94876.81
2022-08-04T01:52:03.110Z,94826.69
2022-08-04T01:53:02.359Z,94877.38
2022-08-04T01:53:59.106Z,94876.56
2022-08-04T01:54:57.362Z,94861.38
2022-08-04T01:55:57.571Z,94852.81
2022-08-04T01:56:56.414Z,94779.13
2022-08-04T01:57:53.530Z,94880.53
2022-08-04T01:58:50.249Z,94752.72
2022-08-04T01:59:48.813Z,94880.31
2022-08-04T02:01:06.617Z,94890.44
2022-08-04T02:02:06.367Z,94882.44
2022-08-04T02:03:03.267Z,94893.38
2022-08-04T02:04:20.972Z,94890.97
2022-08-04T02:05:20.193Z,94850.19
2022-08-04T02:06:49.443Z,94869.16
2022-08-04T02:08:04.632Z,94869.16
2022-08-04T02:09:30.326Z,94864.63
2022-08-04T02:10:41.857Z,94868.09
2022-08-04T02:11:43.679Z,94864.13
2022-08-04T02:12:56.111Z,94866.22
2022-08-04T02:14:37.582Z,94856.63
2022-08-04T02:15:52.909Z,94877.38
2022-08-04T02:16:53.076Z,94883.78
2022-08-04T02:18:03.761Z,94725.34
2022-08-04T02:19:09.126Z,94869.41
2022-08-04T02:20:39.282Z,94883.81
2022-08-04T02:21:42.068Z,94880.06
2022-08-04T02:22:56.236Z,94880.88
2022-08-04T02:24:06.958Z,94884.06
2022-08-04T02:25:08.863Z,94869.88
2022-08-04T02:26:20.000Z,94870.34
2022-08-04T02:27:29.571Z,94861.25
2022-08-04T02:29:32.106Z,94880.56
2022-08-04T02:30:40.415Z,94881.13
2022-08-04T02:31:49.764Z,94888.63
2022-08-04T02:32:48.900Z,94898.22
2022-08-04T02:34:10.575Z,94807.25
2022-08-04T02:35:13.981Z,94887.78
2022-08-04T02:36:17.578Z,94882.44
2022-08-04T02:37:17.866Z,94880.84
2022-08-04T02:38:34.789Z,94872.03
2022-08-04T02:39:47.822Z,94879.50
2022-08-04T02:40:47.143Z,94857.06
2022-08-04T02:41:46.326Z,94885.59
2022-08-04T02:42:46.042Z,94844.19
2022-08-04T02:43:51.619Z,94805.03
2022-08-04T02:44:51.360Z,94842.69
2022-08-04T02:45:51.672Z,94876.81
2022-08-04T02:46:52.210Z,94779.13
2022-08-04T02:48:29.280Z,94888.56
2022-08-04T02:49:11.122Z,94862.97
2022-08-04T02:50:11.956Z,94821.59
2022-08-04T02:51:13.101Z,94878.16
2022-08-04T02:52:12.642Z,94891.16
2022-08-04T02:53:15.416Z,94886.31
2022-08-04T02:54:15.831Z,94896.50
2022-08-04T02:55:29.901Z,94896.97
2022-08-04T02:56:30.583Z,94877.75
2022-08-04T02:57:31.757Z,94894.84
2022-08-04T02:58:35.361Z,94888.84
2022-08-04T03:00:02.493Z,94767.91
2022-08-04T03:00:59.377Z,94793.44
2022-08-04T03:01:58.450Z,94828.09
2022-08-04T03:03:16.856Z,94887.88
2022-08-04T03:04:25.475Z,94881.91
2022-08-04T03:05:28.957Z,94828.78
2022-08-04T03:07:05.920Z,94904.22
2022-08-04T03:08:23.962Z,94896.03
2022-08-04T03:09:48.276Z,94888.28
2022-08-04T03:11:11.185Z,94895.66
2022-08-04T03:12:26.617Z,94892.41
2022-08-04T03:14:09.648Z,94879.66
2022-08-04T03:15:34.466Z,94886.66
2022-08-04T03:16:40.410Z,94888.28
2022-08-04T03:17:37.111Z,94885.53
2022-08-04T03:19:27.355Z,94887.72
2022-08-04T03:20:56.454Z,94885.38
2022-08-04T03:22:30.127Z,94884.09
2022-08-04T03:23:38.647Z,94892.00
2022-08-04T03:24:56.903Z,94886.38
2022-08-04T03:26:08.579Z,94888.22
2022-08-04T03:27:26.903Z,94894.34
2022-08-04T03:28:48.370Z,94889.28
2022-08-04T03:29:57.086Z,94898.84
2022-08-04T03:31:18.568Z,94895.53
2022-08-04T03:32:37.223Z,94895.06
2022-08-04T03:33:36.541Z,94886.63
2022-08-04T03:34:39.254Z,94885.56
2022-08-04T03:35:57.650Z,94886.09
2022-08-04T03:37:21.662Z,94883.63
2022-08-04T03:38:57.081Z,94886.03
2022-08-04T03:40:18.721Z,94894.72
2022-08-04T03:41:51.774Z,94881.19
2022-08-04T03:43:57.786Z,94774.81
2022-08-04T03:44:51.151Z,94885.16
2022-08-04T03:46:06.025Z,94887.72
2022-08-04T03:47:35.007Z,94881.94
2022-08-04T03:49:18.414Z,94874.50
2022-08-04T03:50:25.892Z,94887.31
2022-08-04T03:52:19.653Z,94885.97
2022-08-04T03:53:52.921Z,94880.25
2022-08-04T03:55:19.214Z,94884.56
2022-08-04T03:56:33.694Z,94893.31
2022-08-04T03:57:47.794Z,94887.75
2022-08-04T03:59:03.040Z,94887.41
2022-08-04T04:00:04.342Z,94890.31
2022-08-04T04:01:03.987Z,94889.53
2022-08-04T04:02:20.454Z,94890.34
2022-08-04T04:03:29.395Z,94888.75
2022-08-04T04:04:58.371Z,94886.97
2022-08-04T04:06:32.395Z,94886.16
2022-08-04T04:07:41.122Z,94885.91
2022-08-04T04:09:06.025Z,94890.44
2022-08-04T04:10:43.483Z,94895.91
2022-08-04T04:12:17.711Z,94905.47
2022-08-04T04:13:34.290Z,94903.44
2022-08-04T04:15:14.813Z,94903.50
2022-08-04T04:16:27.440Z,94892.81
2022-08-04T04:17:56.342Z,94892.22
2022-08-04T04:19:07.774Z,94902.84
2022-08-04T04:20:48.114Z,94905.59
2022-08-04T04:22:03.462Z,94904.00
2022-08-04T04:23:11.005Z,94909.38
2022-08-04T04:24:16.811Z,94902.16
2022-08-04T04:25:41.025Z,94906.66
2022-08-04T04:26:59.303Z,94899.19
2022-08-04T04:28:45.023Z,94913.00
2022-08-04T04:30:33.152Z,94911.88
2022-08-04T04:31:53.663Z,94916.75
2022-08-04T04:32:50.361Z,94901.59
2022-08-04T04:34:16.799Z,94885.88
2022-08-04T04:35:16.482Z,94901.34
2022-08-04T04:36:24.303Z,94904.00
2022-08-04T04:37:54.987Z,94898.13
2022-08-04T04:39:03.965Z,94902.44
2022-08-04T04:40:18.001Z,94888.03
2022-08-04T04:41:38.774Z,94904.59
2022-08-04T04:42:44.706Z,94905.38
2022-08-04T04:43:53.335Z,94911.81
2022-08-04T04:44:55.810Z,94908.38
2022-08-04T04:45:59.894Z,94909.16
2022-08-04T04:46:56.643Z,94906.50
2022-08-04T04:48:08.569Z,94915.03
2022-08-04T04:49:35.008Z,94914.72
2022-08-04T04:50:58.534Z,94917.31
2022-08-04T04:52:13.287Z,94919.47
2022-08-04T04:53:38.523Z,94883.19
2022-08-04T04:54:45.728Z,94891.25
2022-08-04T04:56:08.443Z,94926.19
2022-08-04T04:57:11.946Z,94917.09
2022-08-04T04:58:15.479Z,94873.97
2022-08-04T04:59:17.045Z,94917.31
2022-08-04T05:00:15.183Z,94922.16
2022-08-04T05:01:52.101Z,94929.59
2022-08-04T05:03:26.336Z,94908.25
2022-08-04T05:04:35.000Z,94913.63
2022-08-04T05:05:43.351Z,94921.13
2022-08-04T05:06:42.862Z,94914.97
2022-08-04T05:08:45.448Z,94911.50
2022-08-04T05:09:50.852Z,94913.97
2022-08-04T05:10:56.505Z,94913.69
2022-08-04T05:11:59.004Z,94915.00
2022-08-04T05:14:35.738Z,94791.03
2022-08-04T05:14:37.035Z,94919.84
2022-08-04T05:15:43.399Z,94931.31
2022-08-04T05:16:54.520Z,94881.69
2022-08-04T05:17:54.188Z,94920.13
2022-08-04T05:19:29.800Z,94928.41
2022-08-04T05:20:35.647Z,94924.41
2022-08-04T05:21:42.208Z,94902.53
2022-08-04T05:23:00.590Z,94916.13
2022-08-04T05:24:04.016Z,94833.16
2022-08-04T05:25:16.182Z,94867.81
2022-08-04T05:26:18.350Z,94907.03
2022-08-04T05:27:28.563Z,94918.03
2022-08-04T05:28:33.196Z,94934.56
2022-08-04T05:29:43.113Z,94931.88
2022-08-04T05:30:48.665Z,94900.34
2022-08-04T05:31:52.357Z,94924.41
2022-08-04T05:33:04.699Z,94907.59
2022-08-04T05:34:11.461Z,94921.72
2022-08-04T05:35:14.314Z,94912.63
2022-08-04T05:36:41.804Z,94923.88
2022-08-04T05:37:42.443Z,94925.75
2022-08-04T05:38:42.455Z,94928.69
2022-08-04T05:39:47.348Z,94931.34
2022-08-04T05:40:45.884Z,94892.13
2022-08-04T05:41:47.879Z,94902.53
2022-08-04T05:42:56.283Z,94926.81
2022-08-04T05:43:54.654Z,94652.41
2022-08-04T05:44:52.441Z,94930.28
2022-08-04T05:45:52.547Z,94936.13
2022-08-04T05:46:53.638Z,94918.50
2022-08-04T05:47:54.002Z,94908.38
2022-08-04T05:48:52.242Z,94907.28
2022-08-04T05:50:01.512Z,94940.00
2022-08-04T05:51:01.667Z,94828.19
2022-08-04T05:52:04.742Z,94934.81
2022-08-04T05:53:02.941Z,94901.09
2022-08-04T05:54:02.913Z,94887.69
2022-08-04T05:55:01.729Z,94912.34
2022-08-04T05:56:01.843Z,94938.78
2022-08-04T05:57:00.097Z,94947.28
2022-08-04T05:58:00.628Z,94910.16
2022-08-04T05:58:59.878Z,94941.25
2022-08-04T06:00:10.353Z,94939.28
2022-08-04T06:01:19.059Z,94941.03
2022-08-04T06:02:19.290Z,94944.81
2022-08-04T06:03:21.375Z,94825.81
2022-08-04T06:04:21.552Z,94948.06
2022-08-04T06:05:19.362Z,94952.22
2022-08-04T06:06:19.505Z,94930.44
2022-08-04T06:07:16.776Z,94957.69
2022-08-04T06:08:14.135Z,94878.94
2022-08-04T06:09:12.035Z,94896.50
2022-08-04T06:10:09.265Z,94923.13
2022-08-04T06:11:09.649Z,94949.41
2022-08-04T06:12:23.432Z,94930.09
2022-08-04T06:13:47.930Z,94954.28
2022-08-04T06:14:52.995Z,94896.53
2022-08-04T06:15:52.818Z,94932.34
2022-08-04T06:16:52.461Z,94940.91
2022-08-04T06:19:57.460Z,94922.78
2022-08-04T06:20:03.258Z,94950.09
2022-08-04T06:20:50.240Z,94933.06
2022-08-04T06:21:49.947Z,94940.91
2022-08-04T06:22:52.130Z,94959.75
2022-08-04T06:23:53.653Z,94954.41
2022-08-04T06:25:00.785Z,94950.34
2022-08-04T06:26:00.216Z,94947.31
2022-08-04T06:26:57.737Z,94928.38
2022-08-04T06:27:56.484Z,94896.53
2022-08-04T06:28:57.092Z,94956.28
2022-08-04T06:29:57.536Z,94922.19
2022-08-04T06:30:55.803Z,94930.63
2022-08-04T06:32:27.055Z,94930.56
2022-08-04T06:33:26.539Z,94945.47
2022-08-04T06:34:25.582Z,94950.41
2022-08-04T06:35:24.886Z,94932.06
2022-08-04T06:36:22.059Z,94876.91
2022-08-04T06:37:40.944Z,94858.38
2022-08-04T06:38:41.765Z,94956.00
2022-08-04T06:39:39.239Z,94969.78
2022-08-04T06:40:36.572Z,94947.59
2022-08-04T06:41:35.366Z,94946.25
2022-08-04T06:42:53.690Z,94946.78
2022-08-04T06:43:53.542Z,94895.59
2022-08-04T06:44:55.516Z,94947.25
2022-08-04T06:45:54.489Z,94957.25
2022-08-04T06:46:53.163Z,94942.41
2022-08-04T06:47:50.293Z,94940.16
2022-08-04T06:48:49.879Z,94931.03
2022-08-04T06:51:27.923Z,94936.88
2022-08-04T06:51:29.301Z,94921.66
2022-08-04T06:52:28.083Z,94839.59
2022-08-04T06:53:26.573Z,94947.56
2022-08-04T06:54:23.354Z,94947.16
2022-08-04T06:55:20.198Z,94951.50
2022-08-04T06:56:19.206Z,94901.16
2022-08-04T06:57:20.888Z,94816.56
2022-08-04T06:58:21.799Z,94926.81
2022-08-04T06:59:22.305Z,94933.31
2022-08-04T07:00:19.256Z,94959.91
2022-08-04T07:01:19.657Z,94941.56
2022-08-04T07:02:31.505Z,94929.59
2022-08-04T07:03:30.852Z,94953.66
2022-08-04T07:04:28.742Z,94942.88
2022-08-04T07:05:26.690Z,94963.00
2022-08-04T07:06:25.573Z,94953.91
2022-08-04T07:07:36.730Z,94943.44
2022-08-04T07:08:36.334Z,94938.75
2022-08-04T07:09:33.398Z,94839.16
2022-08-04T07:10:31.610Z,94956.66
2022-08-04T07:11:29.114Z,94939.41
2022-08-04T07:12:42.080Z,94929.09
2022-08-04T07:13:44.700Z,94902.28
2022-08-04T07:14:43.888Z,94931.06
2022-08-04T07:15:45.878Z,94919.81
2022-08-04T07:16:43.624Z,94934.59
2022-08-04T07:17:42.309Z,94932.09
2022-08-04T07:18:39.256Z,94943.13
2022-08-04T07:19:36.902Z,94913.78
2022-08-04T07:20:36.813Z,94942.16
2022-08-04T07:21:35.788Z,94862.06
2022-08-04T07:22:33.326Z,94758.34
2022-08-04T07:23:31.502Z,94940.47
2022-08-04T07:24:47.084Z,94937.25
2022-08-04T07:26:11.773Z,94949.63
2022-08-04T07:27:10.061Z,94927.53
2022-08-04T07:28:07.184Z,94904.88
2022-08-04T07:29:04.357Z,94941.78
2022-08-04T07:30:02.646Z,94886.84
2022-08-04T07:31:02.586Z,94945.72
2022-08-04T07:32:01.457Z,94936.38
2022-08-04T07:32:59.138Z,94924.50
2022-08-04T07:34:20.483Z,94827.72
2022-08-04T07:36:05.199Z,94934.63
2022-08-04T07:36:38.373Z,94940.88
2022-08-04T07:37:46.975Z,94838.53
2022-08-04T07:38:46.957Z,94827.50
2022-08-04T07:39:48.804Z,94918.28
2022-08-04T07:40:46.911Z,94859.78
2022-08-04T07:41:48.883Z,94936.38
2022-08-04T07:42:46.592Z,94931.75
2022-08-04T07:43:43.621Z,94928.38
2022-08-04T07:44:40.878Z,94942.25
2022-08-04T07:45:39.755Z,94892.19
2022-08-04T07:46:37.620Z,94952.16
2022-08-04T07:47:34.854Z,94907.50
2022-08-04T07:48:31.778Z,94892.19
2022-08-04T07:49:57.340Z,94936.69
2022-08-04T07:50:47.293Z,94908.53
2022-08-04T07:51:44.572Z,94869.72
2022-08-04T07:52:41.846Z,94954.59
2022-08-04T07:53:54.678Z,94914.38
2022-08-04T07:54:53.994Z,94935.28
2022-08-04T07:55:51.502Z,94920.63
2022-08-04T07:56:49.424Z,94944.75
2022-08-04T07:57:46.633Z,94833.91
2022-08-04T07:58:43.805Z,94902.94
2022-08-04T07:59:41.973Z,94936.63
2022-08-04T08:00:39.699Z,94929.72
2022-08-04T08:01:37.700Z,94945.09
2022-08-04T08:02:36.606Z,94938.59
2022-08-04T08:03:34.877Z,94845.03
2022-08-04T08:04:33.433Z,94805.84
2022-08-04T08:05:30.441Z,94939.59
2022-08-04T08:06:32.047Z,94889.97
2022-08-04T08:07:31.089Z,94914.66
2022-08-04T08:08:27.921Z,94933.03
2022-08-04T08:09:24.821Z,94898.84
2022-08-04T08:10:22.195Z,94926.94
2022-08-04T08:11:19.381Z,94937.22
2022-08-04T08:12:36.926Z,94853.94
2022-08-04T08:13:36.484Z,94936.59
2022-08-04T08:14:35.052Z,94930.84
2022-08-04T08:15:31.870Z,94901.97
2022-08-04T08:16:29.039Z,94843.75
2022-08-04T08:17:25.838Z,94931.56
2022-08-04T08:18:22.567Z,94928.41
2022-08-04T08:19:19.435Z,94922.13
2022-08-04T08:20:29.611Z,94863.56
2022-08-04T08:21:27.181Z,94931.13
2022-08-04T08:22:23.942Z,94831.84
2022-08-04T08:23:21.793Z,94933.09
2022-08-04T08:24:19.669Z,94804.47
2022-08-04T08:25:16.578Z,94938.03
2022-08-04T08:26:13.371Z,94946.84
2022-08-04T08:27:10.307Z,94942.41
2022-08-04T08:28:07.619Z,94942.13
2022-08-04T08:29:04.563Z,94937.59
2022-08-04T08:30:01.276Z,94911.34
2022-08-04T08:30:59.458Z,94943.25
2022-08-04T08:32:01.644Z,94922.53
2022-08-04T08:33:06.626Z,94903.31
2022-08-04T08:34:04.084Z,94920.75
2022-08-04T08:35:01.961Z,94861.53
2022-08-04T08:36:09.897Z,94932.16
2022-08-04T08:37:17.046Z,94942.94
2022-08-04T08:38:18.156Z,94938.72
2022-08-04T08:39:24.718Z,94944.31
2022-08-04T08:40:50.911Z,94916.47
2022-08-04T08:42:14.502Z,94812.38
2022-08-04T08:44:05.904Z,94934.84
2022-08-04T08:44:37.971Z,94937.53
2022-08-04T08:45:49.967Z,94942.38
2022-08-04T08:46:58.477Z,94935.94
2022-08-04T08:48:13.485Z,94937.50
2022-08-04T08:50:00.307Z,94928.47
2022-08-04T08:51:18.214Z,94919.72
2022-08-04T08:53:00.839Z,94905.94
2022-08-04T08:54:36.616Z,94871.28
2022-08-04T08:56:10.329Z,94932.41
2022-08-04T08:57:34.972Z,94933.06
2022-08-04T08:59:05.545Z,94922.50
2022-08-04T09:00:21.802Z,94863.19
2022-08-04T09:01:50.656Z,94935.56
2022-08-04T09:03:21.008Z,94924.59
2022-08-04T09:04:48.003Z,94834.78
2022-08-04T09:06:17.210Z,94917.25
2022-08-04T09:07:27.957Z,94823.50
2022-08-04T09:09:01.961Z,94922.22
2022-08-04T09:10:01.688Z,94933.00
2022-08-04T09:11:08.926Z,94924.41
2022-08-04T09:12:29.320Z,94910.94
2022-08-04T09:13:46.334Z,94928.56
2022-08-04T09:14:54.378Z,94907.13
2022-08-04T09:16:01.570Z,94927.63
2022-08-04T09:17:06.631Z,94888.53
2022-08-04T09:18:18.280Z,94824.28
2022-08-04T09:19:24.691Z,94922.56
2022-08-04T09:20:47.681Z,94924.38
2022-08-04T09:22:02.524Z,94922.06
2022-08-04T09:23:23.664Z,94918.00
2022-08-04T09:24:37.148Z,94915.38
2022-08-04T09:25:54.468Z,94922.84
2022-08-04T09:27:03.609Z,94900.94
2022-08-04T09:28:09.136Z,94892.66
2022-08-04T09:29:33.861Z,94917.50
2022-08-04T09:30:55.958Z,94920.53
2022-08-04T09:32:06.900Z,94921.81
2022-08-04T09:33:44.332Z,94886.53
2022-08-04T09:35:03.701Z,94913.88
2022-08-04T09:36:05.361Z,94905.44
2022-08-04T09:37:20.362Z,94892.09
2022-08-04T09:38:40.125Z,94913.06
2022-08-04T09:39:54.916Z,94914.78
2022-08-04T09:41:19.792Z,94890.63
2022-08-04T09:42:48.334Z,94918.16
2022-08-04T09:44:50.585Z,94916.25
2022-08-04T09:45:58.711Z,94913.69
2022-08-04T09:47:10.621Z,94916.22
2022-08-04T09:48:25.028Z,94904.63
2022-08-04T09:49:32.030Z,94826.44
2022-08-04T09:50:36.583Z,94905.09
2022-08-04T09:51:57.832Z,94911.13
2022-08-04T09:53:42.394Z,94891.56
2022-08-04T09:55:03.998Z,94910.25
2022-08-04T09:56:14.257Z,94918.13
2022-08-04T09:57:47.698Z,94760.31
2022-08-04T09:58:56.911Z,94897.59
2022-08-04T10:00:10.802Z,94917.13
2022-08-04T10:01:21.183Z,94912.03
2022-08-04T10:02:24.469Z,94921.53
2022-08-04T10:03:27.476Z,94808.19
2022-08-04T10:04:29.445Z,94841.91
2022-08-04T10:05:42.347Z,94909.69
2022-08-04T10:07:00.775Z,94903.69
2022-08-04T10:08:17.079Z,94900.78
2022-08-04T10:09:48.682Z,94903.03
2022-08-04T10:10:51.878Z,94905.75
2022-08-04T10:11:57.696Z,94897.91
2022-08-04T10:13:20.626Z,94891.38
2022-08-04T10:14:40.361Z,94787.72
2022-08-04T10:15:53.340Z,94901.25
2022-08-04T10:16:58.529Z,94891.31
2022-08-04T10:18:10.830Z,94894.69
2022-08-04T10:19:28.860Z,94841.81
2022-08-04T10:20:54.261Z,94890.28
2022-08-04T10:22:28.552Z,94894.78
2022-08-04T10:23:56.432Z,94896.19
2022-08-04T10:25:05.814Z,94885.88
2022-08-04T10:26:45.786Z,94880.31
2022-08-04T10:27:51.228Z,94862.72
2022-08-04T10:28:56.712Z,94893.88
2022-08-04T10:30:11.999Z,94881.59
2022-08-04T10:31:13.503Z,94890.72
2022-08-04T10:32:35.686Z,94875.09
2022-08-04T10:33:58.253Z,94903.59
2022-08-04T10:35:00.937Z,94885.63
2022-08-04T10:36:04.728Z,94886.09
2022-08-04T10:37:19.143Z,94881.38
2022-08-04T10:38:40.571Z,94889.59
2022-08-04T10:40:09.645Z,94853.75
2022-08-04T10:41:09.321Z,94874.00
2022-08-04T10:42:25.384Z,94880.72
2022-08-04T10:43:40.767Z,94879.25
2022-08-04T10:45:06.090Z,94880.22
2022-08-04T10:46:10.829Z,94885.13
2022-08-04T10:47:19.994Z,94862.00
2022-08-04T10:48:40.989Z,94882.19
2022-08-04T10:49:46.348Z,94884.09
2022-08-04T10:50:59.730Z,94889.03
2022-08-04T10:52:11.222Z,94876.91
2022-08-04T10:53:14.036Z,94829.56
2022-08-04T10:54:17.401Z,94868.28
2022-08-04T10:55:23.343Z,94879.66
2022-08-04T10:57:01.371Z,94861.00
2022-08-04T10:58:04.508Z,94884.16
2022-08-04T10:59:17.937Z,94867.66
2022-08-04T11:00:21.863Z,94881.66
2022-08-04T11:02:00.660Z,94870.75
2022-08-04T11:03:26.683Z,94848.72
2022-08-04T11:04:43.908Z,94861.22
2022-08-04T11:05:54.297Z,94867.22
2022-08-04T11:06:53.132Z,94867.47
2022-08-04T11:07:53.878Z,94860.16
2022-08-04T11:08:55.600Z,94860.31
2022-08-04T11:09:53.167Z,94875.00
2022-08-04T11:11:07.889Z,94865.78
2022-08-04T11:12:16.559Z,94835.84
2022-08-04T11:13:22.127Z,94840.47
2022-08-04T11:14:59.536Z,94864.56
2022-08-04T11:16:02.549Z,94765.53
2022-08-04T11:16:59.208Z,94867.91
2022-08-04T11:18:06.794Z,94874.25
2022-08-04T11:19:42.725Z,94855.53
2022-08-04T11:21:16.706Z,94858.53
2022-08-04T11:22:26.965Z,94858.63
2022-08-04T11:23:34.720Z,94842.50
2022-08-04T11:24:53.786Z,94840.91
2022-08-04T11:25:58.898Z,94855.34
2022-08-04T11:27:03.811Z,94824.94
2022-08-04T11:28:14.215Z,94831.97
2022-08-04T11:31:03.958Z,94848.25
2022-08-04T11:32:05.900Z,94825.44
2022-08-04T11:33:33.562Z,94801.88
2022-08-04T11:34:35.846Z,94845.41
2022-08-04T11:35:52.516Z,94843.19
2022-08-04T11:37:17.416Z,94838.66
2022-08-04T11:38:42.395Z,94828.88
2022-08-04T11:40:04.094Z,94748.03
2022-08-04T11:41:10.946Z,94844.06
2022-08-04T11:42:10.352Z,94843.13
2022-08-04T11:44:00.911Z,94763.66
2022-08-04T11:44:50.715Z,94843.00
2022-08-04T11:46:09.897Z,94839.72
2022-08-04T11:47:39.751Z,94817.78
2022-08-04T11:48:45.110Z,94800.25
2022-08-04T11:49:56.914Z,94855.00
2022-08-04T11:50:56.736Z,94742.25
2022-08-04T11:51:57.092Z,94827.28
2022-08-04T11:52:57.583Z,94833.91
2022-08-04T11:53:56.033Z,94757.81
2022-08-04T11:54:55.716Z,94759.25
2022-08-04T11:56:08.792Z,94800.69
2022-08-04T11:57:06.906Z,94842.38
2022-08-04T11:58:03.787Z,94721.69
2022-08-04T11:59:03.132Z,94824.75
2022-08-04T12:00:07.223Z,94839.44
2022-08-04T12:01:34.827Z,94826.22
2022-08-04T12:02:59.610Z,94788.34
2022-08-04T12:04:13.826Z,94824.78
2022-08-04T12:05:33.598Z,94839.03
2022-08-04T12:06:54.028Z,94841.31
2022-08-04T12:08:36.039Z,94832.00
2022-08-04T12:09:48.017Z,94717.75
2022-08-04T12:11:12.873Z,94746.59
2022-08-04T12:12:34.999Z,94828.47
2022-08-04T12:13:44.799Z,94787.75
2022-08-04T12:14:53.335Z,94754.06
2022-08-04T12:15:58.816Z,94810.50
2022-08-04T12:17:01.887Z,94816.31
2022-08-04T12:18:04.230Z,94833.97
2022-08-04T12:19:17.077Z,94836.16
2022-08-04T12:20:31.573Z,94846.63
2022-08-04T12:21:50.360Z,94819.66
2022-08-04T12:22:53.276Z,94843.63
2022-08-04T12:24:00.527Z,94851.34
2022-08-04T12:25:13.769Z,94842.69
2022-08-04T12:26:19.467Z,94843.16
2022-08-04T12:27:26.042Z,94814.69
2022-08-04T12:29:09.662Z,94834.72
2022-08-04T12:30:59.876Z,94823.88
2022-08-04T12:31:46.987Z,94799.47
2022-08-04T12:32:55.333Z,94814.59
2022-08-04T12:34:04.403Z,94824.19
2022-08-04T12:35:19.395Z,94717.28
2022-08-04T12:36:29.456Z,94821.81
2022-08-04T12:37:42.499Z,94826.22
2022-08-04T12:38:48.634Z,94807.44
2022-08-04T12:40:27.561Z,94834.28
2022-08-04T12:41:11.706Z,94820.56
2022-08-04T12:42:36.458Z,94825.00
2022-08-04T12:43:43.866Z,94668.31
2022-08-04T12:44:42.982Z,94718.53
2022-08-04T12:45:49.077Z,94815.84
2022-08-04T12:46:47.468Z,94818.31
2022-08-04T12:47:47.512Z,94767.94
2022-08-04T12:48:47.118Z,94820.16
2022-08-04T12:50:00.172Z,94710.22
2022-08-04T12:50:59.562Z,94821.00
2022-08-04T12:52:07.540Z,94818.41
2022-08-04T12:53:31.351Z,94792.72
2022-08-04T12:54:32.206Z,94698.13
2022-08-04T12:55:33.599Z,94810.94
2022-08-04T12:56:32.600Z,94681.94
2022-08-04T12:57:34.383Z,94722.25
2022-08-04T12:58:43.236Z,94793.31
2022-08-04T12:59:43.939Z,94821.94
2022-08-04T13:00:42.432Z,94780.63
2022-08-04T13:02:08.869Z,94796.47
2022-08-04T13:03:11.915Z,94792.34
2022-08-04T13:04:21.952Z,94795.28
2022-08-04T13:05:30.106Z,94782.13
2022-08-04T13:06:36.138Z,94803.06
2022-08-04T13:07:51.748Z,94781.56
2022-08-04T13:08:49.024Z,94697.63
2022-08-04T13:09:47.267Z,94806.78
2022-08-04T13:10:50.814Z,94699.72
2022-08-04T13:11:52.929Z,94811.91
2022-08-04T13:13:00.793Z,94791.88
2022-08-04T13:14:17.623Z,94710.09
2022-08-04T13:15:21.153Z,94807.25
2022-08-04T13:16:17.951Z,94709.47
2022-08-04T13:17:14.990Z,94800.41
2022-08-04T13:18:15.213Z,94608.19
2022-08-04T13:19:12.938Z,94692.63
2022-08-04T13:20:09.962Z,94717.94
2022-08-04T13:21:20.366Z,94813.69
2022-08-04T13:22:27.178Z,94698.38
2022-08-04T13:23:27.605Z,94796.44
2022-08-04T13:26:43.704Z,94688.28
2022-08-04T13:27:25.035Z,94538.84
2022-08-04T13:28:26.249Z,94807.34
2022-08-04T13:29:59.902Z,94745.06
2022-08-04T13:30:25.238Z,94682.88
2022-08-04T13:31:05.533Z,94766.81
2022-08-04T13:32:04.519Z,94801.19
2022-08-04T13:33:06.844Z,94773.19
2022-08-04T13:34:18.802Z,94785.00
2022-08-04T13:35:16.394Z,94793.88
2022-08-04T13:36:16.134Z,94783.84
2022-08-04T13:37:20.949Z,94792.56
2022-08-04T13:38:20.476Z,94776.84
2022-08-04T13:39:21.826Z,94769.72
2022-08-04T13:40:23.459Z,94782.06
2022-08-04T13:41:22.617Z,94710.34
2022-08-04T13:42:21.055Z,94754.31